createdAt,value
2017-12-22T00:01:44.915Z,100787.20
2017-12-22T00:04:13.202Z,100786.22
2017-12-22T00:06:41.506Z,100776.75
2017-12-22T00:09:09.802Z,100779.50
2017-12-22T00:11:38.112Z,100771.30
2017-12-22T00:14:06.385Z,100780.63
2017-12-22T00:16:34.683Z,100775.98
2017-12-22T00:19:03.000Z,100769.58
2017-12-22T00:21:31.292Z,100767.66
2017-12-22T00:24:00.007Z,100752.13
2017-12-22T00:26:28.327Z,100754.05
2017-12-22T00:28:56.659Z,100750.32
2017-12-22T00:31:24.916Z,100744.31
2017-12-22T00:33:53.225Z,100748.13
2017-12-22T00:36:21.516Z,100738.48
2017-12-22T00:38:49.812Z,100749.06
2017-12-22T00:41:18.092Z,100733.57
2017-12-22T00:43:46.420Z,100746.92
2017-12-22T00:46:14.697Z,100749.27
2017-12-22T00:48:42.989Z,100746.44
2017-12-22T00:51:12.126Z,100743.90
2017-12-22T00:53:40.407Z,100742.59
2017-12-22T00:56:08.705Z,100747.16
2017-12-22T00:58:36.982Z,100745.05
2017-12-22T01:01:05.283Z,100744.72
2017-12-22T01:03:33.560Z,100739.66
2017-12-22T01:06:01.855Z,100736.01
2017-12-22T01:08:30.111Z,100731.86
2017-12-22T01:10:58.403Z,100727.29
2017-12-22T01:13:26.975Z,100723.31
2017-12-22T01:16:00.973Z,100722.69
2017-12-22T01:18:34.706Z,100723.07
2017-12-22T01:21:03.031Z,100717.36
2017-12-22T01:23:31.657Z,100715.86
2017-12-22T01:26:00.017Z,100719.44
2017-12-22T01:28:28.284Z,100716.67
2017-12-22T01:30:56.596Z,100713.53
2017-12-22T01:33:24.868Z,100720.91
2017-12-22T01:35:53.199Z,100715.23
2017-12-22T01:38:21.512Z,100707.23
2017-12-22T01:40:50.127Z,100707.04
2017-12-22T01:43:18.421Z,100706.91
2017-12-22T01:45:46.687Z,100706.91
2017-12-22T01:48:15.963Z,100704.30
2017-12-22T01:50:44.250Z,100703.40
2017-12-22T01:53:12.579Z,100703.30
2017-12-22T01:55:40.851Z,100703.96
2017-12-22T01:58:09.186Z,100696.68
2017-12-22T02:00:37.459Z,100700.89
2017-12-22T02:03:05.778Z,100702.20
2017-12-22T02:05:34.132Z,100699.94
2017-12-22T02:08:02.442Z,100695.08
2017-12-22T02:10:30.740Z,100700.25
2017-12-22T02:12:59.022Z,100684.94
2017-12-22T02:15:27.348Z,100688.64
2017-12-22T02:17:55.623Z,100691.52
2017-12-22T02:20:23.936Z,100694.98
2017-12-22T02:22:52.210Z,100694.66
2017-12-22T02:25:20.528Z,100686.98
2017-12-22T02:27:48.813Z,100681.17
2017-12-22T02:30:17.135Z,100668.43
2017-12-22T02:32:45.401Z,100673.48
2017-12-22T02:35:13.686Z,100682.16
2017-12-22T02:37:41.964Z,100673.50
2017-12-22T02:40:10.280Z,100675.41
2017-12-22T02:42:38.807Z,100671.42
2017-12-22T02:45:07.067Z,100676.52
2017-12-22T02:47:35.358Z,100672.06
2017-12-22T02:50:03.626Z,100672.83
2017-12-22T02:52:31.913Z,100668.97
2017-12-22T02:55:00.176Z,100671.83
2017-12-22T02:57:28.492Z,100664.83
2017-12-22T02:59:56.779Z,100664.73
2017-12-22T03:02:25.091Z,100660.70
2017-12-22T03:04:53.460Z,100659.24
2017-12-22T03:07:21.742Z,100653.64
2017-12-22T03:09:50.006Z,100649.85
2017-12-22T03:12:18.309Z,100656.77
2017-12-22T03:14:46.582Z,100652.90
2017-12-22T03:17:14.866Z,100656.51
2017-12-22T03:19:43.159Z,100657.41
2017-12-22T03:22:11.441Z,100660.61
2017-12-22T03:24:39.743Z,100660.83
2017-12-22T03:27:08.012Z,100653.73
2017-12-22T03:29:36.310Z,100649.33
2017-12-22T03:32:05.046Z,100610.38
2017-12-22T03:34:33.339Z,100633.81
2017-12-22T03:37:01.623Z,100638.77
2017-12-22T03:39:29.927Z,100640.87
2017-12-22T03:41:58.234Z,100645.09
2017-12-22T03:44:26.511Z,100628.77
2017-12-22T03:46:54.805Z,100634.13
2017-12-22T03:49:23.071Z,100637.13
2017-12-22T03:51:51.378Z,100633.86
2017-12-22T03:54:19.691Z,100628.61
2017-12-22T03:56:48.008Z,100636.55
2017-12-22T03:59:16.278Z,100635.38
2017-12-22T04:01:44.589Z,100639.27
2017-12-22T04:04:12.865Z,100636.21
2017-12-22T04:06:41.163Z,100630.22
2017-12-22T04:09:09.436Z,100628.81
2017-12-22T04:11:37.768Z,100622.44
2017-12-22T04:14:06.043Z,100617.12
2017-12-22T04:16:34.358Z,100619.97
2017-12-22T04:19:02.620Z,100621.39
2017-12-22T04:21:31.154Z,100620.70
2017-12-22T04:23:59.418Z,100621.03
2017-12-22T04:26:27.696Z,100620.93
2017-12-22T04:28:56.012Z,100604.59
2017-12-22T04:31:24.283Z,100615.88
2017-12-22T04:33:52.578Z,100611.79
2017-12-22T04:36:20.910Z,100614.06
2017-12-22T04:38:49.187Z,100608.16
2017-12-22T04:41:17.461Z,100605.42
2017-12-22T04:43:45.767Z,100610.33
2017-12-22T04:46:14.051Z,100609.19
2017-12-22T04:48:42.638Z,100611.74
2017-12-22T04:51:10.912Z,100600.14
2017-12-22T04:53:39.175Z,100608.33
2017-12-22T04:56:07.467Z,100608.88
2017-12-22T04:58:35.747Z,100607.47
2017-12-22T05:01:04.987Z,100597.72
2017-12-22T05:03:33.255Z,100608.41
2017-12-22T05:06:01.570Z,100604.91
2017-12-22T05:08:29.857Z,100601.73
2017-12-22T05:10:58.148Z,100600.23
2017-12-22T05:13:26.426Z,100599.78
2017-12-22T05:15:54.787Z,100578.91
2017-12-22T05:18:23.063Z,100597.23
2017-12-22T05:20:51.359Z,100598.73
2017-12-22T05:23:19.631Z,100598.19
2017-12-22T05:25:47.917Z,100602.05
2017-12-22T05:28:16.217Z,100593.32
2017-12-22T05:30:44.503Z,100594.83
2017-12-22T05:33:12.824Z,100598.31
2017-12-22T05:35:41.129Z,100596.33
2017-12-22T05:38:09.405Z,100596.52
2017-12-22T05:40:37.703Z,100596.64
2017-12-22T05:43:06.005Z,100595.65
2017-12-22T05:45:34.311Z,100591.51
2017-12-22T05:48:02.651Z,100582.55
2017-12-22T05:50:30.920Z,100597.52
2017-12-22T05:52:59.246Z,100586.77
2017-12-22T05:55:27.552Z,100592.69
2017-12-22T05:57:56.157Z,100594.19
2017-12-22T06:00:24.440Z,100594.09
2017-12-22T06:02:52.712Z,100586.50
2017-12-22T06:05:21.015Z,100582.72
2017-12-22T06:07:49.276Z,100590.17
2017-12-22T06:10:17.572Z,100570.82
2017-12-22T06:12:45.829Z,100591.09
2017-12-22T06:15:14.146Z,100587.58
2017-12-22T06:17:42.469Z,100589.31
2017-12-22T06:20:10.785Z,100592.55
2017-12-22T06:22:39.128Z,100592.73
2017-12-22T06:25:07.440Z,100599.92
2017-12-22T06:27:35.712Z,100598.77
2017-12-22T06:30:04.870Z,100576.78
2017-12-22T06:32:33.154Z,100599.61
2017-12-22T06:35:02.348Z,100592.13
2017-12-22T06:37:30.628Z,100583.45
2017-12-22T06:39:58.940Z,100593.46
2017-12-22T06:42:27.241Z,100590.27
2017-12-22T06:44:55.508Z,100587.78
2017-12-22T06:47:23.832Z,100590.91
2017-12-22T06:49:52.141Z,100595.01
2017-12-22T06:52:20.423Z,100595.15
2017-12-22T06:54:48.718Z,100596.05
2017-12-22T06:57:17.038Z,100593.69
2017-12-22T06:59:45.324Z,100591.69
2017-12-22T07:02:13.635Z,100590.78
2017-12-22T07:04:41.915Z,100597.36
2017-12-22T07:07:10.200Z,100593.09
2017-12-22T07:09:39.246Z,100589.41
2017-12-22T07:12:07.526Z,100593.05
2017-12-22T07:14:35.907Z,100593.28
2017-12-22T07:17:04.207Z,100597.00
2017-12-22T07:19:32.503Z,100591.28
2017-12-22T07:22:00.792Z,100593.64
2017-12-22T07:24:29.080Z,100592.73
2017-12-22T07:26:57.368Z,100596.64
2017-12-22T07:29:26.522Z,100593.42
2017-12-22T07:31:54.789Z,100598.92
2017-12-22T07:34:23.119Z,100596.42
2017-12-22T07:36:51.387Z,100605.59
2017-12-22T07:39:19.694Z,100600.38
2017-12-22T07:41:47.987Z,100597.69
2017-12-22T07:44:16.299Z,100622.10
2017-12-22T07:46:44.627Z,100616.92
2017-12-22T07:49:12.941Z,100620.74
2017-12-22T07:51:41.186Z,100621.48
2017-12-22T07:54:09.534Z,100625.75
2017-12-22T07:56:38.614Z,100625.30
2017-12-22T07:59:06.938Z,100631.89
2017-12-22T08:01:35.320Z,100633.48
2017-12-22T08:04:03.611Z,100635.99
2017-12-22T08:06:31.927Z,100628.16
2017-12-22T08:09:00.183Z,100629.27
2017-12-22T08:11:28.793Z,100642.72
2017-12-22T08:13:57.189Z,100635.41
2017-12-22T08:16:25.596Z,100637.95
2017-12-22T08:18:53.920Z,100648.59
2017-12-22T08:21:22.289Z,100646.23
2017-12-22T08:23:50.672Z,100584.31
2017-12-22T08:26:18.922Z,100648.41
2017-12-22T08:28:47.239Z,100649.77
2017-12-22T08:31:15.525Z,100651.53
2017-12-22T08:33:43.839Z,100651.80
2017-12-22T08:36:12.156Z,100632.47
2017-12-22T08:38:40.437Z,100653.54
2017-12-22T08:41:08.783Z,100658.10
2017-12-22T08:43:37.105Z,100651.78
2017-12-22T08:46:05.662Z,100662.65
2017-12-22T08:48:34.087Z,100660.97
2017-12-22T08:51:02.436Z,100663.75
2017-12-22T08:53:30.771Z,100657.60
2017-12-22T08:55:59.070Z,100656.05
2017-12-22T08:58:27.377Z,100657.23
2017-12-22T09:00:56.866Z,100665.97
2017-12-22T09:03:25.136Z,100665.15
2017-12-22T09:05:53.401Z,100666.12
2017-12-22T09:08:21.714Z,100662.83
2017-12-22T09:10:50.018Z,100668.06
2017-12-22T09:13:18.330Z,100653.87
2017-12-22T09:15:46.659Z,100669.80
2017-12-22T09:18:14.970Z,100673.53
2017-12-22T09:20:43.264Z,100676.17
2017-12-22T09:23:11.567Z,100679.09
2017-12-22T09:25:39.859Z,100678.76
2017-12-22T09:28:08.522Z,100654.49
2017-12-22T09:30:36.917Z,100678.80
2017-12-22T09:33:05.448Z,100674.02
2017-12-22T09:35:33.736Z,100673.52
2017-12-22T09:38:02.051Z,100677.03
2017-12-22T09:40:30.400Z,100675.98
2017-12-22T09:42:58.758Z,100677.44
2017-12-22T09:45:27.053Z,100677.34
2017-12-22T09:47:55.340Z,100679.39
2017-12-22T09:50:23.641Z,100671.06
2017-12-22T09:52:52.112Z,100678.84
2017-12-22T09:55:20.521Z,100680.45
2017-12-22T09:57:48.817Z,100674.70
2017-12-22T10:00:18.313Z,100671.03
2017-12-22T10:02:46.598Z,100674.76
2017-12-22T10:05:14.909Z,100670.45
2017-12-22T10:07:43.195Z,100657.52
2017-12-22T10:10:11.534Z,100650.50
2017-12-22T10:12:39.833Z,100666.09
2017-12-22T10:15:08.116Z,100666.50
2017-12-22T10:17:36.428Z,100666.09
2017-12-22T10:20:05.937Z,100659.62
2017-12-22T10:22:34.268Z,100659.13
2017-12-22T10:25:03.868Z,100655.53
2017-12-22T10:27:32.175Z,100648.16
2017-12-22T10:30:00.473Z,100646.60
2017-12-22T10:32:29.419Z,100643.80
2017-12-22T10:34:57.685Z,100646.42
2017-12-22T10:37:26.031Z,100646.87
2017-12-22T10:39:54.580Z,100642.14
2017-12-22T10:42:22.851Z,100644.70
2017-12-22T10:44:51.177Z,100635.37
2017-12-22T10:47:19.412Z,100639.77
2017-12-22T10:49:47.760Z,100637.50
2017-12-22T10:52:16.088Z,100651.61
2017-12-22T10:54:44.473Z,100653.52
2017-12-22T10:57:12.728Z,100648.59
2017-12-22T10:59:41.050Z,100646.23
2017-12-22T11:02:09.384Z,100638.21
2017-12-22T11:04:38.846Z,100652.95
2017-12-22T11:07:07.202Z,100659.14
2017-12-22T11:09:36.510Z,100651.52
2017-12-22T11:12:04.774Z,100652.38
2017-12-22T11:14:33.068Z,100652.13
2017-12-22T11:17:01.430Z,100654.88
2017-12-22T11:19:29.741Z,100646.98
2017-12-22T11:21:58.071Z,100647.30
2017-12-22T11:24:26.412Z,100647.78
2017-12-22T11:26:54.760Z,100645.42
2017-12-22T11:29:23.104Z,100644.19
2017-12-22T11:31:51.389Z,100639.98
2017-12-22T11:34:19.761Z,100651.56
2017-12-22T11:36:48.055Z,100634.29
2017-12-22T11:39:16.807Z,100541.96
2017-12-22T11:41:45.104Z,100649.39
2017-12-22T11:44:13.482Z,100642.12
2017-12-22T11:46:41.765Z,100636.76
2017-12-22T11:49:10.100Z,100635.36
2017-12-22T11:51:39.048Z,100640.24
2017-12-22T11:54:07.351Z,100636.61
2017-12-22T11:56:35.789Z,100634.30
2017-12-22T11:59:05.000Z,100638.38
2017-12-22T12:01:34.301Z,100637.70
2017-12-22T12:04:03.224Z,100633.94
2017-12-22T12:06:31.818Z,100627.88
2017-12-22T12:09:00.137Z,100630.77
2017-12-22T12:11:28.522Z,100626.98
2017-12-22T12:13:56.797Z,100630.31
2017-12-22T12:16:25.127Z,100632.45
2017-12-22T12:18:55.119Z,100627.48
2017-12-22T12:21:23.896Z,100631.10
2017-12-22T12:23:52.171Z,100627.84
2017-12-22T12:26:20.462Z,100613.83
2017-12-22T12:28:48.804Z,100626.47
2017-12-22T12:31:17.200Z,100622.76
2017-12-22T12:33:45.523Z,100616.73
2017-12-22T12:36:13.910Z,100604.75
2017-12-22T12:38:42.238Z,100625.01
2017-12-22T12:41:10.547Z,100625.03
2017-12-22T12:43:38.818Z,100623.45
2017-12-22T12:46:07.319Z,100621.61
2017-12-22T12:48:35.631Z,100621.05
2017-12-22T12:51:04.247Z,100624.02
2017-12-22T12:53:32.552Z,100623.59
2017-12-22T12:56:00.824Z,100630.02
2017-12-22T12:58:30.199Z,100635.58
2017-12-22T13:00:58.537Z,100633.61
2017-12-22T13:03:26.839Z,100635.09
2017-12-22T13:05:55.781Z,100622.28
2017-12-22T13:08:24.062Z,100627.06
2017-12-22T13:10:52.388Z,100624.11
2017-12-22T13:13:20.660Z,100622.19
2017-12-22T13:15:48.946Z,100618.78
2017-12-22T13:18:17.280Z,100621.27
2017-12-22T13:20:45.780Z,100620.41
2017-12-22T13:23:14.189Z,100619.66
2017-12-22T13:25:42.541Z,100624.86
2017-12-22T13:28:10.873Z,100625.59
2017-12-22T13:30:39.149Z,100615.33
2017-12-22T13:33:07.504Z,100618.89
2017-12-22T13:35:35.795Z,100618.38
2017-12-22T13:38:04.953Z,100625.19
2017-12-22T13:40:33.286Z,100619.41
2017-12-22T13:43:01.579Z,100613.92
2017-12-22T13:45:29.863Z,100608.62
2017-12-22T13:47:58.179Z,100611.52
2017-12-22T13:50:26.456Z,100607.72
2017-12-22T13:52:54.766Z,100613.45
2017-12-22T13:55:23.060Z,100622.69
2017-12-22T13:57:51.392Z,100613.83
2017-12-22T14:00:19.685Z,100605.27
2017-12-22T14:02:47.977Z,100604.25
2017-12-22T14:05:16.293Z,100602.11
2017-12-22T14:07:44.580Z,100605.44
2017-12-22T14:10:12.870Z,100592.78
2017-12-22T14:12:41.522Z,100593.34
2017-12-22T14:15:09.847Z,100604.62
2017-12-22T14:17:38.124Z,100609.87
2017-12-22T14:20:06.434Z,100612.02
2017-12-22T14:22:34.706Z,100613.79
2017-12-22T14:25:03.024Z,100619.06
2017-12-22T14:27:32.247Z,100620.20
2017-12-22T14:30:00.524Z,100618.38
2017-12-22T14:32:28.860Z,100615.50
2017-12-22T14:34:57.143Z,100627.00
2017-12-22T14:37:25.427Z,100622.84
2017-12-22T14:39:53.720Z,100621.78
2017-12-22T14:42:22.065Z,100625.77
2017-12-22T14:44:50.384Z,100623.26
2017-12-22T14:47:18.756Z,100626.27
2017-12-22T14:49:48.128Z,100630.33
2017-12-22T14:52:16.448Z,100633.27
2017-12-22T14:54:44.767Z,100630.61
2017-12-22T14:57:13.059Z,100616.27
2017-12-22T14:59:41.371Z,100631.77
2017-12-22T15:02:09.680Z,100623.35
2017-12-22T15:04:38.015Z,100628.13
2017-12-22T15:07:06.335Z,100634.18
2017-12-22T15:09:34.638Z,100643.95
2017-12-22T15:12:02.911Z,100643.54
2017-12-22T15:14:31.194Z,100642.34
2017-12-22T15:16:59.487Z,100646.56
2017-12-22T15:19:27.811Z,100645.66
2017-12-22T15:21:56.092Z,100647.47
2017-12-22T15:24:24.415Z,100650.56
2017-12-22T15:26:53.001Z,100657.76
2017-12-22T15:29:21.468Z,100658.23
2017-12-22T15:31:50.550Z,100657.50
2017-12-22T15:34:18.896Z,100657.42
2017-12-22T15:36:47.495Z,100665.34
2017-12-22T15:39:15.949Z,100649.45
2017-12-22T15:41:44.283Z,100662.22
2017-12-22T15:44:12.565Z,100666.77
2017-12-22T15:46:40.866Z,100667.97
2017-12-22T15:49:09.618Z,100670.61
2017-12-22T15:51:37.900Z,100673.46
2017-12-22T15:54:06.176Z,100659.48
2017-12-22T15:56:37.141Z,100681.72
2017-12-22T15:59:08.169Z,100683.69
2017-12-22T16:01:37.050Z,100683.34
2017-12-22T16:04:05.694Z,100691.48
2017-12-22T16:06:33.995Z,100689.16
2017-12-22T16:09:02.256Z,100692.36
2017-12-22T16:11:31.490Z,100701.66
2017-12-22T16:13:59.846Z,100696.94
2017-12-22T16:16:28.179Z,100703.94
2017-12-22T16:18:59.203Z,100699.81
2017-12-22T16:21:27.671Z,100705.11
2017-12-22T16:23:57.280Z,100702.55
2017-12-22T16:26:25.566Z,100704.53
2017-12-22T16:28:54.014Z,100702.06
2017-12-22T16:31:23.408Z,100710.78
2017-12-22T16:33:51.771Z,100701.73
2017-12-22T16:36:20.311Z,100696.16
2017-12-22T16:38:49.900Z,100705.22
2017-12-22T16:41:18.382Z,100695.41
2017-12-22T16:43:46.785Z,100700.56
2017-12-22T16:46:17.304Z,100701.30
2017-12-22T16:48:45.662Z,100695.75
2017-12-22T16:51:13.955Z,100699.53
2017-12-22T16:53:42.528Z,100688.81
2017-12-22T16:56:10.897Z,100692.88
2017-12-22T16:58:39.377Z,100710.45
2017-12-22T17:01:08.204Z,100721.28
2017-12-22T17:03:36.624Z,100722.61
2017-12-22T17:06:04.935Z,100715.61
2017-12-22T17:08:33.344Z,100716.61
2017-12-22T17:11:01.690Z,100701.91
2017-12-22T17:13:29.966Z,100725.91
2017-12-22T17:15:58.264Z,100730.05
2017-12-22T17:18:26.622Z,100732.71
2017-12-22T17:20:54.921Z,100737.65
2017-12-22T17:23:23.479Z,100740.92
2017-12-22T17:25:51.764Z,100746.09
2017-12-22T17:28:20.082Z,100750.33
2017-12-22T17:30:48.358Z,100755.97
2017-12-22T17:33:16.772Z,100755.30
2017-12-22T17:35:45.076Z,100757.70
2017-12-22T17:38:13.379Z,100766.64
2017-12-22T17:40:41.643Z,100770.44
2017-12-22T17:43:09.976Z,100769.55
2017-12-22T17:45:38.395Z,100771.36
2017-12-22T17:48:07.053Z,100764.99
2017-12-22T17:50:35.356Z,100762.78
2017-12-22T17:53:03.632Z,100762.91
2017-12-22T17:55:31.964Z,100765.04
2017-12-22T17:58:00.261Z,100769.23
2017-12-22T18:00:28.683Z,100776.95
2017-12-22T18:02:56.951Z,100773.94
2017-12-22T18:05:25.239Z,100779.98
2017-12-22T18:07:53.559Z,100777.89
2017-12-22T18:10:21.847Z,100780.03
2017-12-22T18:12:50.134Z,100786.05
2017-12-22T18:15:18.475Z,100780.86
2017-12-22T18:17:46.782Z,100767.91
2017-12-22T18:20:15.200Z,100774.64
2017-12-22T18:22:43.465Z,100767.27
2017-12-22T18:25:11.750Z,100761.44
2017-12-22T18:27:40.764Z,100763.69
2017-12-22T18:30:09.062Z,100772.23
2017-12-22T18:32:37.449Z,100773.10
2017-12-22T18:35:05.745Z,100776.14
2017-12-22T18:37:34.084Z,100776.07
2017-12-22T18:40:02.372Z,100780.75
2017-12-22T18:42:30.684Z,100780.63
2017-12-22T18:44:58.976Z,100778.53
2017-12-22T18:47:27.304Z,100786.27
2017-12-22T18:49:55.599Z,100789.36
2017-12-22T18:52:23.958Z,100790.03
2017-12-22T18:54:52.297Z,100796.78
2017-12-22T18:57:20.622Z,100796.22
2017-12-22T18:59:48.982Z,100801.03
2017-12-22T19:02:17.371Z,100809.49
2017-12-22T19:04:45.681Z,100809.84
2017-12-22T19:07:13.995Z,100817.52
2017-12-22T19:09:42.322Z,100813.09
2017-12-22T19:12:10.682Z,100812.55
2017-12-22T19:14:38.954Z,100816.20
2017-12-22T19:17:07.273Z,100820.68
2017-12-22T19:19:35.589Z,100816.14
2017-12-22T19:22:03.912Z,100815.63
2017-12-22T19:24:32.761Z,100823.73
2017-12-22T19:27:01.055Z,100825.49
2017-12-22T19:29:30.201Z,100816.58
2017-12-22T19:31:58.504Z,100823.87
2017-12-22T19:34:26.810Z,100822.22
2017-12-22T19:36:55.243Z,100821.02
2017-12-22T19:39:23.544Z,100824.20
2017-12-22T19:41:51.908Z,100821.49
2017-12-22T19:44:20.180Z,100825.84
2017-12-22T19:46:48.491Z,100825.44
2017-12-22T19:49:16.834Z,100827.55
2017-12-22T19:51:45.132Z,100825.23
2017-12-22T19:54:13.423Z,100828.78
2017-12-22T19:56:41.740Z,100821.21
2017-12-22T19:59:10.122Z,100827.77
2017-12-22T20:01:38.395Z,100844.84
2017-12-22T20:04:06.734Z,100841.45
2017-12-22T20:06:35.166Z,100840.09
2017-12-22T20:09:05.154Z,100844.33
2017-12-22T20:11:33.472Z,100840.52
2017-12-22T20:14:01.791Z,100847.03
2017-12-22T20:16:30.104Z,100851.20
2017-12-22T20:18:58.536Z,100845.19
2017-12-22T20:21:27.784Z,100844.70
2017-12-22T20:23:56.064Z,100842.05
2017-12-22T20:26:24.394Z,100841.47
2017-12-22T20:28:52.687Z,100844.11
2017-12-22T20:31:21.079Z,100843.27
2017-12-22T20:33:49.368Z,100849.89
2017-12-22T20:36:17.677Z,100845.72
2017-12-22T20:38:45.968Z,100849.28
2017-12-22T20:41:14.294Z,100857.27
2017-12-22T20:43:42.589Z,100857.34
2017-12-22T20:46:10.919Z,100851.49
2017-12-22T20:48:39.267Z,100844.23
2017-12-22T20:51:07.596Z,100857.42
2017-12-22T20:53:35.867Z,100858.71
2017-12-22T20:56:05.186Z,100857.21
2017-12-22T20:58:33.504Z,100854.35
2017-12-22T21:01:01.840Z,100855.48
2017-12-22T21:03:30.131Z,100860.63
2017-12-22T21:05:58.751Z,100855.34
2017-12-22T21:08:27.082Z,100864.28
2017-12-22T21:10:55.456Z,100862.68
2017-12-22T21:13:23.726Z,100860.03
2017-12-22T21:15:52.044Z,100860.52
2017-12-22T21:18:20.367Z,100854.69
2017-12-22T21:20:48.683Z,100857.08
2017-12-22T21:23:17.553Z,100865.80
2017-12-22T21:25:45.909Z,100865.72
2017-12-22T21:28:14.228Z,100861.75
2017-12-22T21:30:42.549Z,100859.98
2017-12-22T21:33:10.847Z,100863.48
2017-12-22T21:35:39.175Z,100865.78
2017-12-22T21:38:07.520Z,100873.43
2017-12-22T21:40:35.821Z,100876.73
2017-12-22T21:43:04.159Z,100880.27
2017-12-22T21:45:32.470Z,100879.83
2017-12-22T21:48:00.787Z,100875.45
2017-12-22T21:50:29.114Z,100877.69
2017-12-22T21:52:57.478Z,100881.74
2017-12-22T21:55:25.804Z,100877.94
2017-12-22T21:57:54.131Z,100872.55
2017-12-22T22:00:22.448Z,100868.63
2017-12-22T22:02:51.539Z,100872.27
2017-12-22T22:05:19.894Z,100866.70
2017-12-22T22:07:48.195Z,100870.21
2017-12-22T22:10:16.493Z,100871.08
2017-12-22T22:12:44.813Z,100881.85
2017-12-22T22:15:13.112Z,100875.14
2017-12-22T22:17:41.448Z,100885.09
2017-12-22T22:20:09.776Z,100887.91
2017-12-22T22:22:38.993Z,100894.57
2017-12-22T22:25:07.327Z,100892.70
2017-12-22T22:27:35.617Z,100894.67
2017-12-22T22:30:04.812Z,100909.16
2017-12-22T22:32:33.389Z,100906.67
2017-12-22T22:35:01.764Z,100906.45
2017-12-22T22:37:30.050Z,100907.31
2017-12-22T22:39:58.356Z,100905.57
2017-12-22T22:42:26.645Z,100911.03
2017-12-22T22:44:54.982Z,100918.84
2017-12-22T22:47:23.277Z,100916.22
2017-12-22T22:49:51.608Z,100922.55
2017-12-22T22:52:19.904Z,100919.09
2017-12-22T22:54:48.234Z,100915.48
2017-12-22T22:57:16.519Z,100911.97
2017-12-22T22:59:44.845Z,100901.06
2017-12-22T23:02:13.128Z,100901.77
2017-12-22T23:04:41.437Z,100898.47
2017-12-22T23:07:09.736Z,100895.89
2017-12-22T23:09:39.080Z,100881.99
2017-12-22T23:12:07.432Z,100888.95
2017-12-22T23:14:35.770Z,100885.91
2017-12-22T23:17:05.082Z,100893.27
2017-12-22T23:19:33.414Z,100884.05
2017-12-22T23:22:02.566Z,100864.94
2017-12-22T23:24:30.813Z,100880.20
2017-12-22T23:26:59.144Z,100879.16
2017-12-22T23:29:27.438Z,100879.08
2017-12-22T23:31:55.735Z,100885.86
2017-12-22T23:34:24.054Z,100878.47
2017-12-22T23:36:52.336Z,100888.22
2017-12-22T23:39:20.634Z,100885.04
2017-12-22T23:41:48.950Z,100882.85
2017-12-22T23:44:17.324Z,100885.34
2017-12-22T23:46:45.695Z,100888.42
2017-12-22T23:49:14.028Z,100870.82
2017-12-22T23:51:42.320Z,100891.11
2017-12-22T23:54:10.635Z,100891.36
2017-12-22T23:56:38.955Z,100872.67
2017-12-22T23:59:07.262Z,100880.34
